createdAt,value
2022-11-13T00:02:22.136Z,4.17
2022-11-13T00:05:07.563Z,5.37
2022-11-13T00:07:52.541Z,5.25
2022-11-13T00:10:38.023Z,4.97
2022-11-13T00:13:29.058Z,4.85
2022-11-13T00:16:18.296Z,5.55
2022-11-13T00:19:03.507Z,5.28
2022-11-13T00:21:48.797Z,7.35
2022-11-13T00:24:33.825Z,6.28
2022-11-13T00:27:19.078Z,5.47
2022-11-13T00:30:05.175Z,6.97
2022-11-13T00:35:35.380Z,5.40
2022-11-13T00:38:20.789Z,3.95
2022-11-13T00:41:06.009Z,3.93
2022-11-13T00:43:51.415Z,3.87
2022-11-13T00:46:36.349Z,6.93
2022-11-13T00:49:21.519Z,5.87
2022-11-13T00:52:06.905Z,5.80
2022-11-13T00:54:52.278Z,6.85
2022-11-13T00:57:37.588Z,6.43
2022-11-13T01:00:22.821Z,3.83
2022-11-13T01:03:08.295Z,4.78
2022-11-13T01:05:53.172Z,6.38
2022-11-13T01:08:38.550Z,6.03
2022-11-13T01:11:29.064Z,4.03
2022-11-13T01:14:14.565Z,4.85
2022-11-13T01:16:59.832Z,4.45
2022-11-13T01:19:45.095Z,4.47
2022-11-13T01:22:30.736Z,3.28
2022-11-13T01:25:16.547Z,3.27
2022-11-13T01:28:01.574Z,5.00
2022-11-13T01:30:46.692Z,3.25
2022-11-13T01:33:31.859Z,3.05
2022-11-13T01:36:23.161Z,4.10
2022-11-13T01:39:11.363Z,5.68
2022-11-13T01:41:56.443Z,3.22
2022-11-13T01:44:48.157Z,3.08
2022-11-13T01:47:33.080Z,2.33
2022-11-13T01:50:18.484Z,3.33
2022-11-13T01:53:04.643Z,5.45
2022-11-13T01:55:49.909Z,3.25
2022-11-13T01:58:35.789Z,3.87
2022-11-13T02:01:21.371Z,5.25
2022-11-13T02:04:07.364Z,2.70
2022-11-13T02:06:56.520Z,4.97
2022-11-13T02:09:48.579Z,4.78
2022-11-13T02:12:40.051Z,5.18
2022-11-13T02:15:28.329Z,4.90
2022-11-13T02:18:15.226Z,5.25
2022-11-13T02:21:25.395Z,13.40
2022-11-13T02:24:23.435Z,4.85
2022-11-13T02:27:36.356Z,4.10
2022-11-13T02:30:27.825Z,5.13
2022-11-13T02:33:29.846Z,8.15
2022-11-13T02:36:15.971Z,4.72
2022-11-13T02:39:05.023Z,4.35
2022-11-13T02:41:50.182Z,5.32
2022-11-13T02:44:35.482Z,3.30
2022-11-13T02:47:20.983Z,7.22
2022-11-13T02:50:08.084Z,4.17
2022-11-13T02:52:52.946Z,4.47
2022-11-13T02:55:38.245Z,5.03
2022-11-13T02:58:23.214Z,5.33
2022-11-13T03:01:08.519Z,4.15
2022-11-13T03:03:57.997Z,4.57
2022-11-13T03:06:43.417Z,5.07
2022-11-13T03:09:28.715Z,3.13
2022-11-13T03:12:14.432Z,3.57
2022-11-13T03:17:44.851Z,5.43
2022-11-13T03:20:30.215Z,2.53
2022-11-13T03:23:15.442Z,2.57
2022-11-13T03:26:10.098Z,4.90
2022-11-13T03:28:55.472Z,2.88
2022-11-13T03:31:40.856Z,3.60
2022-11-13T03:34:26.170Z,2.73
2022-11-13T03:37:11.419Z,2.45
2022-11-13T03:39:56.827Z,3.80
2022-11-13T03:42:42.063Z,2.73
2022-11-13T03:45:27.399Z,5.13
2022-11-13T03:48:16.630Z,2.47
2022-11-13T03:51:02.216Z,2.83
2022-11-13T03:53:47.145Z,2.53
2022-11-13T03:56:32.408Z,3.20
2022-11-13T03:59:17.733Z,3.65
2022-11-13T04:02:02.958Z,3.55
2022-11-13T04:04:48.227Z,1.95
2022-11-13T04:07:33.509Z,2.10
2022-11-13T04:10:18.858Z,4.93
2022-11-13T04:13:04.263Z,4.00
2022-11-13T04:15:49.462Z,2.77
2022-11-13T04:18:35.014Z,3.22
2022-11-13T04:21:20.260Z,2.75
2022-11-13T04:24:05.695Z,4.10
2022-11-13T04:26:50.966Z,3.72
2022-11-13T04:29:36.179Z,1.83
2022-11-13T04:32:21.545Z,2.08
2022-11-13T04:35:07.554Z,2.30
2022-11-13T04:37:53.023Z,3.10
2022-11-13T04:40:39.171Z,2.33
2022-11-13T04:43:23.998Z,1.65
2022-11-13T04:46:09.252Z,3.17
2022-11-13T04:48:54.513Z,1.40
2022-11-13T04:51:39.858Z,2.25
2022-11-13T04:54:28.782Z,1.77
2022-11-13T04:57:14.328Z,1.90
2022-11-13T04:59:59.916Z,3.65
2022-11-13T05:02:45.577Z,1.92
2022-11-13T05:05:30.789Z,3.83
2022-11-13T05:08:16.065Z,4.03
2022-11-13T05:11:02.068Z,2.60
2022-11-13T05:13:47.069Z,3.83
2022-11-13T05:16:35.409Z,2.35
2022-11-13T05:19:20.678Z,6.28
2022-11-13T05:22:06.780Z,1.60
2022-11-13T05:24:51.821Z,1.95
2022-11-13T05:27:37.147Z,5.60
2022-11-13T05:30:22.509Z,1.50
2022-11-13T05:33:08.083Z,2.27
2022-11-13T05:35:53.196Z,4.22
2022-11-13T05:38:39.308Z,1.40
2022-11-13T05:44:09.756Z,5.85
2022-11-13T05:46:54.952Z,2.73
2022-11-13T05:49:40.371Z,4.78
2022-11-13T05:52:25.644Z,1.93
2022-11-13T05:55:10.964Z,2.03
2022-11-13T05:57:56.172Z,2.33
2022-11-13T06:00:41.548Z,1.88
2022-11-13T06:03:26.781Z,1.90
2022-11-13T06:06:15.132Z,4.63
2022-11-13T06:09:03.258Z,1.95
2022-11-13T06:11:48.765Z,1.60
2022-11-13T06:14:33.923Z,2.05
2022-11-13T06:17:19.252Z,3.20
2022-11-13T06:20:05.017Z,3.03
2022-11-13T06:22:49.927Z,3.90
2022-11-13T06:25:35.248Z,1.90
2022-11-13T06:28:20.319Z,3.00
2022-11-13T06:31:08.149Z,4.80
2022-11-13T06:33:54.067Z,3.70
2022-11-13T06:36:39.166Z,4.82
2022-11-13T06:39:24.501Z,4.15
2022-11-13T06:42:09.710Z,6.50
2022-11-13T06:44:54.987Z,3.87
2022-11-13T06:47:40.085Z,4.25
2022-11-13T06:50:25.506Z,6.85
2022-11-13T06:53:10.889Z,3.70
2022-11-13T06:55:56.491Z,3.27
2022-11-13T06:58:41.931Z,5.88
2022-11-13T07:01:27.434Z,2.85
2022-11-13T07:04:13.841Z,4.25
2022-11-13T07:06:59.022Z,2.53
2022-11-13T07:09:44.135Z,3.10
2022-11-13T07:12:29.754Z,4.75
2022-11-13T07:15:16.528Z,46.95
2022-11-13T07:18:02.928Z,12.75
2022-11-13T07:20:48.318Z,14.00
2022-11-13T07:23:46.651Z,17.08
2022-11-13T07:26:37.205Z,9.95
2022-11-13T07:29:24.457Z,6.07
2022-11-13T07:32:17.070Z,7.63
2022-11-13T07:35:08.253Z,9.38
2022-11-13T07:37:58.019Z,40.83
2022-11-13T07:40:42.858Z,56.08
2022-11-13T07:43:28.889Z,36.27
2022-11-13T07:46:13.780Z,18.15
2022-11-13T07:48:59.184Z,17.63
2022-11-13T07:51:44.512Z,11.32
2022-11-13T07:54:29.762Z,7.50
2022-11-13T07:57:15.240Z,8.20
2022-11-13T08:00:00.541Z,6.65
2022-11-13T08:02:47.772Z,4.97
2022-11-13T08:05:33.311Z,5.68
2022-11-13T08:08:18.451Z,5.57
2022-11-13T08:11:05.883Z,2.33
2022-11-13T08:13:52.518Z,2.70
2022-11-13T08:16:37.504Z,2.53
2022-11-13T08:19:22.892Z,2.92
2022-11-13T08:22:08.304Z,2.33
2022-11-13T08:24:53.794Z,4.57
2022-11-13T08:27:38.970Z,2.60
2022-11-13T08:30:26.767Z,2.03
2022-11-13T08:33:11.952Z,2.53
2022-11-13T08:35:59.679Z,2.03
2022-11-13T08:38:44.888Z,5.45
2022-11-13T08:41:30.103Z,1.70
2022-11-13T08:44:15.441Z,3.20
2022-11-13T08:47:00.693Z,1.83
2022-11-13T08:49:45.804Z,2.92
2022-11-13T08:52:31.064Z,2.70
2022-11-13T08:55:16.598Z,1.67
2022-11-13T08:58:03.532Z,1.63
2022-11-13T09:00:48.664Z,3.92
2022-11-13T09:03:36.167Z,1.77
2022-11-13T09:06:21.309Z,1.40
2022-11-13T09:09:06.942Z,3.15
2022-11-13T09:11:52.262Z,4.60
2022-11-13T09:14:37.900Z,3.00
2022-11-13T09:17:22.772Z,5.63
2022-11-13T09:20:12.669Z,4.72
2022-11-13T09:23:05.579Z,1.55
2022-11-13T09:25:50.896Z,2.20
2022-11-13T09:28:36.703Z,2.65
2022-11-13T09:31:22.082Z,3.13
2022-11-13T09:34:08.335Z,4.68
2022-11-13T09:39:39.509Z,2.85
2022-11-13T09:45:16.320Z,5.95
2022-11-13T09:48:32.775Z,3.55
2022-11-13T09:51:37.293Z,3.25
2022-11-13T09:54:23.118Z,3.97
2022-11-13T09:57:26.876Z,4.50
2022-11-13T10:00:19.942Z,3.97
2022-11-13T10:03:54.710Z,5.40
2022-11-13T10:06:59.464Z,2.95
2022-11-13T10:10:19.234Z,3.15
2022-11-13T10:13:06.019Z,4.88
2022-11-13T10:15:55.232Z,3.78
2022-11-13T10:18:40.925Z,4.38
2022-11-13T10:21:38.558Z,4.20
2022-11-13T10:24:40.780Z,3.65
2022-11-13T10:27:26.470Z,3.22
2022-11-13T10:30:16.948Z,4.53
2022-11-13T10:33:06.604Z,4.05
2022-11-13T10:36:10.167Z,4.05
2022-11-13T10:39:15.371Z,3.90
2022-11-13T10:42:00.591Z,3.85
2022-11-13T10:44:54.752Z,4.82
2022-11-13T10:48:03.762Z,6.18
2022-11-13T10:50:58.481Z,7.78
2022-11-13T10:53:43.628Z,4.63
2022-11-13T10:56:31.653Z,4.95
2022-11-13T10:59:19.609Z,4.13
2022-11-13T11:02:25.609Z,3.85
2022-11-13T11:05:20.922Z,4.03
2022-11-13T11:08:10.538Z,4.53
2022-11-13T11:11:20.531Z,2.60
2022-11-13T11:14:44.244Z,3.63
2022-11-13T11:17:41.328Z,4.10
2022-11-13T11:20:37.557Z,4.20
2022-11-13T11:23:24.082Z,4.22
2022-11-13T11:26:34.081Z,5.07
2022-11-13T11:29:49.728Z,6.60
2022-11-13T11:32:44.687Z,2.58
2022-11-13T11:35:43.961Z,3.83
2022-11-13T11:39:11.505Z,2.72
2022-11-13T11:42:09.152Z,3.65
2022-11-13T11:45:16.437Z,6.10
2022-11-13T11:48:06.950Z,5.22
2022-11-13T11:51:28.824Z,3.80
2022-11-13T11:54:37.147Z,3.97
2022-11-13T11:58:00.164Z,1.92
2022-11-13T12:01:00.738Z,3.60
2022-11-13T12:04:00.235Z,4.32
2022-11-13T12:07:16.359Z,6.80
2022-11-13T12:10:32.291Z,3.17
2022-11-13T12:13:30.720Z,2.38
2022-11-13T12:16:26.711Z,4.07
2022-11-13T12:19:24.203Z,3.53
2022-11-13T12:22:30.718Z,3.85
2022-11-13T12:25:30.410Z,3.85
2022-11-13T12:28:41.608Z,3.50
2022-11-13T12:31:59.408Z,4.40
2022-11-13T12:34:51.961Z,4.60
2022-11-13T12:37:47.501Z,2.75
2022-11-13T12:43:48.757Z,2.17
2022-11-13T12:46:40.129Z,4.78
2022-11-13T12:49:36.597Z,4.53
2022-11-13T12:52:24.593Z,2.72
2022-11-13T12:55:37.581Z,4.13
2022-11-13T12:58:32.226Z,2.47
2022-11-13T13:01:22.063Z,3.47
2022-11-13T13:04:08.288Z,2.47
2022-11-13T13:07:03.452Z,2.47
2022-11-13T13:10:17.842Z,4.55
2022-11-13T13:13:31.881Z,4.75
2022-11-13T13:16:30.331Z,4.18
2022-11-13T13:19:28.486Z,4.10
2022-11-13T13:22:31.565Z,2.45
2022-11-13T13:25:39.554Z,2.92
2022-11-13T13:28:26.958Z,3.25
2022-11-13T13:31:13.473Z,4.45
2022-11-13T13:34:17.586Z,3.63
2022-11-13T13:37:22.072Z,3.70
2022-11-13T13:40:23.059Z,3.45
2022-11-13T13:43:32.119Z,3.90
2022-11-13T13:46:26.077Z,5.85
2022-11-13T13:49:17.085Z,3.60
2022-11-13T13:52:02.909Z,4.30
2022-11-13T13:54:48.895Z,2.97
2022-11-13T13:57:41.432Z,2.78
2022-11-13T14:00:28.979Z,2.85
2022-11-13T14:03:21.863Z,4.63
2022-11-13T14:06:25.969Z,4.22
2022-11-13T14:09:21.280Z,4.70
2022-11-13T14:12:17.086Z,5.68
2022-11-13T16:18:31.479Z,6.57
2022-11-13T16:21:18.883Z,3.15
2022-11-13T16:24:04.212Z,4.32
2022-11-13T16:29:40.379Z,4.97
2022-11-13T16:32:25.608Z,4.35
2022-11-13T16:35:18.957Z,7.38
2022-11-13T16:38:11.339Z,4.05
2022-11-13T16:40:57.111Z,5.05
2022-11-13T16:43:45.532Z,5.82
2022-11-13T16:46:33.582Z,6.18
2022-11-13T16:49:20.197Z,4.78
2022-11-13T16:52:05.334Z,7.60
2022-11-13T16:54:51.474Z,7.93
2022-11-13T17:00:22.073Z,6.82
2022-11-13T17:03:07.042Z,9.43
2022-11-13T17:05:52.626Z,11.50
2022-11-13T17:08:37.679Z,9.13
2022-11-13T17:11:27.725Z,12.00
2022-11-13T17:14:13.601Z,9.63
2022-11-13T17:16:58.837Z,10.38
2022-11-13T17:19:44.678Z,10.85
2022-11-13T17:22:29.902Z,8.80
2022-11-13T17:25:17.183Z,18.63
2022-11-13T17:28:02.565Z,9.75
2022-11-13T17:30:47.731Z,9.57
2022-11-13T17:33:33.418Z,9.13
2022-11-13T17:36:18.649Z,7.97
2022-11-13T17:39:04.132Z,10.13
2022-11-13T17:41:50.555Z,8.05
2022-11-13T17:44:35.654Z,9.35
2022-11-13T17:47:21.057Z,7.25
2022-11-13T17:50:07.772Z,12.97
2022-11-13T17:52:53.580Z,10.68
2022-11-13T17:55:39.042Z,10.57
2022-11-13T17:58:26.009Z,10.93
2022-11-13T18:01:16.059Z,10.27
2022-11-13T18:04:03.533Z,9.82
2022-11-13T18:06:50.479Z,11.43
2022-11-13T18:09:37.130Z,10.57
2022-11-13T18:12:24.199Z,12.52
2022-11-13T18:15:10.804Z,13.25
2022-11-13T18:17:56.693Z,13.75
2022-11-13T18:26:18.424Z,10.40
2022-11-13T18:29:04.386Z,10.68
2022-11-13T18:31:50.299Z,13.60
2022-11-13T18:34:36.704Z,10.50
2022-11-13T18:37:23.146Z,13.35
2022-11-13T18:40:10.013Z,17.77
2022-11-13T18:42:55.728Z,15.40
2022-11-13T18:45:42.374Z,16.15
2022-11-13T18:48:33.059Z,13.35
2022-11-13T18:51:25.791Z,14.25
2022-11-13T18:54:13.417Z,20.48
2022-11-13T18:56:59.796Z,22.63
2022-11-13T18:59:46.353Z,19.50
2022-11-13T19:02:32.387Z,14.60
2022-11-13T19:05:18.320Z,13.43
2022-11-13T19:08:04.692Z,14.27
2022-11-13T19:13:37.826Z,9.45
2022-11-13T19:16:30.353Z,7.70
2022-11-13T19:19:23.724Z,7.40
2022-11-13T19:22:09.509Z,8.77
2022-11-13T19:24:55.205Z,8.32
2022-11-13T19:27:40.252Z,14.07
2022-11-13T19:30:25.537Z,11.32
2022-11-13T19:33:10.779Z,6.73
2022-11-13T19:35:57.945Z,7.50
2022-11-13T19:38:45.363Z,9.23
2022-11-13T19:41:32.475Z,7.72
2022-11-13T19:44:19.739Z,11.65
2022-11-13T19:47:07.120Z,16.45
2022-11-13T19:49:53.432Z,11.93
2022-11-13T19:52:39.746Z,10.77
2022-11-13T19:58:13.186Z,11.32
2022-11-13T20:01:00.477Z,8.07
2022-11-13T20:03:48.212Z,9.90
2022-11-13T20:06:37.238Z,8.45
2022-11-13T20:09:24.509Z,7.43
2022-11-13T20:12:11.273Z,12.73
2022-11-13T20:14:58.255Z,9.80
2022-11-13T20:17:44.259Z,9.30
2022-11-13T20:20:34.074Z,6.63
2022-11-13T20:23:22.275Z,7.28
2022-11-13T20:26:17.154Z,9.73
2022-11-13T20:29:03.455Z,5.57
2022-11-13T20:31:50.168Z,9.93
2022-11-13T20:34:36.777Z,6.18
2022-11-13T20:37:22.999Z,4.95
2022-11-13T20:40:09.129Z,5.80
2022-11-13T20:42:54.497Z,6.88
2022-11-13T20:45:39.933Z,6.20
2022-11-13T20:48:25.234Z,10.68
2022-11-13T20:51:15.644Z,6.30
2022-11-13T20:54:01.049Z,9.10
2022-11-13T20:56:46.272Z,7.50
2022-11-13T20:59:31.663Z,6.97
2022-11-13T21:02:16.948Z,9.63
2022-11-13T21:05:02.255Z,7.63
2022-11-13T21:07:47.700Z,10.02
2022-11-13T21:10:33.732Z,8.52
2022-11-13T21:13:18.740Z,9.25
2022-11-13T21:16:08.849Z,6.18
2022-11-13T21:18:58.619Z,6.65
2022-11-13T21:21:43.961Z,7.18
2022-11-13T21:24:29.673Z,7.35
2022-11-13T21:27:14.883Z,7.63
2022-11-13T21:30:00.243Z,6.10
2022-11-13T21:32:45.601Z,8.27
2022-11-13T21:35:30.886Z,6.60
2022-11-13T21:38:16.154Z,6.25
2022-11-13T21:41:21.408Z,5.47
2022-11-13T21:44:08.513Z,6.82
2022-11-13T21:46:54.167Z,7.50
2022-11-13T21:49:39.366Z,9.98
2022-11-13T21:52:24.656Z,9.48
2022-11-13T21:55:10.541Z,6.53
2022-11-13T21:57:55.901Z,4.85
2022-11-13T22:00:41.029Z,9.48
2022-11-13T22:03:27.451Z,11.73
2022-11-13T22:06:12.581Z,10.02
2022-11-13T22:09:03.946Z,10.48
2022-11-13T22:11:49.403Z,10.18
2022-11-13T22:14:34.749Z,13.80
2022-11-13T22:17:20.065Z,11.88
2022-11-13T22:20:05.850Z,11.10
2022-11-13T22:25:37.260Z,13.35
2022-11-13T22:28:23.751Z,10.32
2022-11-13T22:31:14.711Z,9.73
2022-11-13T22:34:00.477Z,11.75
2022-11-13T22:36:45.401Z,10.90
2022-11-13T22:39:30.719Z,9.43
2022-11-13T22:42:15.974Z,12.05
2022-11-13T22:45:01.615Z,11.65
2022-11-13T22:47:46.656Z,12.90
2022-11-13T22:50:31.787Z,9.63
2022-11-13T22:53:17.040Z,10.30
2022-11-13T22:56:07.505Z,10.77
2022-11-13T22:58:54.199Z,8.32
2022-11-13T23:01:41.273Z,12.40
2022-11-13T23:04:26.724Z,16.90
2022-11-13T23:07:11.992Z,16.77
2022-11-13T23:09:57.220Z,13.05
2022-11-13T23:12:42.937Z,15.20
2022-11-13T23:15:28.162Z,13.65
2022-11-13T23:18:13.396Z,15.95
2022-11-13T23:20:59.125Z,18.77
2022-11-13T23:23:44.602Z,18.45
2022-11-13T23:26:30.036Z,17.55
2022-11-13T23:29:15.492Z,20.27
2022-11-13T23:32:00.824Z,17.33
2022-11-13T23:34:59.145Z,17.48
2022-11-13T23:37:45.171Z,14.88
2022-11-13T23:40:30.487Z,18.55
2022-11-13T23:43:15.879Z,19.75
2022-11-13T23:46:01.193Z,20.13
2022-11-13T23:48:46.699Z,17.08
2022-11-13T23:51:31.927Z,16.40
2022-11-13T23:54:17.257Z,15.43
2022-11-13T23:57:02.757Z,17.15
2022-11-13T23:59:48.085Z,18.98
